Flight Track Log - Related Links

Times and Time Zones

All times are in EST time to prevent confusion due to time zone crossing. See the N225SB flight status page for this flight to view local times or setup timezone preferences in your user account.


Time Position Orientation Groundspeed Altitude Reporting Facility
EST Latitude Longitude Course Direction KTS MPH feet Rate Location/Type
Mon 01:38:43 PM 25.7683 -95.3669 45° Northeast 514 592 39,000  Level Houston Center
Mon 01:39:45 PM 25.8811 -95.2447 44° Northeast 516 594 39,000  Level Houston Center
Mon 01:40:47 PM 25.9819 -95.1319 45° Northeast 514 592 39,000  Level Houston Center
Mon 01:41:50 PM 26.0833 -95.0186 45° Northeast 514 592 39,000  Level Houston Center
Mon 01:42:52 PM 26.2056 -94.8847 44° Northeast 514 592 39,000  Level Houston Center
Mon 01:43:54 PM 26.3058 -94.7714 45° Northeast 514 592 39,000  Level Houston Center
Mon 01:44:00 PM 26.6557 -94.3617 45° Northeast  Level FlightAware Approximate
Mon 01:44:56 PM 26.4083 -94.6558 45° Northeast 516 594 39,000  Level Houston Center
Mon 01:45:58 PM 26.5208 -94.5294 45° Northeast 517 595 39,000  Level Houston Center
Mon 01:47:00 PM 26.6225 -94.4153 45° Northeast 518 596 39,000  Level Houston Center
Mon 01:48:03 PM 26.7228 -94.3017 45° Northeast 518 596 39,000  Level Houston Center
Mon 01:49:05 PM 26.8242 -94.1875 45° Northeast 518 596 39,000  Level Houston Center
Mon 01:50:07 PM 26.9261 -94.0722 45° Northeast 518 596 39,000  Level Houston Center
Mon 01:51:09 PM 27.0467 -93.9333 46° Northeast 518 596 39,000  Level Houston Center
Mon 01:52:11 PM 27.1481 -93.8183 45° Northeast 518 596 39,000  Level Houston Center
Mon 01:53:14 PM 27.2494 -93.7028 45° Northeast 518 596 39,000  Level Houston Center
Mon 01:54:16 PM 27.3508 -93.5861 46° Northeast 519 597 39,000  Level Houston Center
Mon 01:55:18 PM 27.4528 -93.4689 46° Northeast 520 598 39,000  Level Houston Center
Mon 01:56:20 PM 27.5544 -93.3514 46° Northeast 522 601 39,000  Level Houston Center
Mon 01:57:22 PM 27.6667 -93.2217 46° Northeast 524 603 39,000  Level Houston Center
Mon 01:58:24 PM 27.7675 -93.1039 46° Northeast 524 603 39,000  Level Houston Center
Mon 01:59:27 PM 27.8886 -92.9636 46° Northeast 523 602 39,000  Level Houston Center
Mon 02:00:29 PM 27.9900 -92.8431 46° Northeast 524 603 39,000  Level Houston Center
Mon 02:01:31 PM 28.0914 -92.7258 46° Northeast 524 603 39,000  Level Houston Center
Mon 02:02:33 PM 28.1917 -92.6064 46° Northeast 524 603 39,000  Level Houston Center
Mon 02:03:35 PM 28.2928 -92.4869 46° Northeast 527 606 39,000  Level Houston Center
Mon 02:04:37 PM 28.4150 -92.3439 46° Northeast 526 605 39,000  Level Houston Center
Mon 02:05:40 PM 28.4958 -92.2467 47° Northeast 527 606 39,000  Level Houston Center
Mon 02:06:42 PM 28.6169 -92.1025 46° Northeast 527 606 39,000  Level Houston Center
Mon 02:07:44 PM 28.7264 -91.9722 46° Northeast 527 606 39,000  Level Houston Center
Mon 02:08:46 PM 28.8164 -91.8639 47° Northeast 520 598 39,000  Level Houston Center
Mon 02:09:48 PM 28.9342 -91.7228 46° Northeast 521 600 39,000  Level Houston Center
Mon 02:10:50 PM 29.0344 -91.6014 47° Northeast 523 602 39,000  Level Houston Center
Mon 02:11:53 PM 29.1347 -91.4797 47° Northeast 523 602 39,000  Level Houston Center
Mon 02:12:55 PM 29.2350 -91.3581 47° Northeast 524 603 39,000  Level Houston Center
Mon 02:13:57 PM 29.3347 -91.2353 47° Northeast 524 603 39,000  Level Houston Center
Mon 02:14:59 PM 29.4556 -91.0886 47° Northeast 524 603 39,000  Level Houston Center
Mon 02:16:01 PM 29.5533 -90.9667 47° Northeast 524 603 39,000  Level Houston Center
Mon 02:17:03 PM 29.6533 -90.8453 47° Northeast 524 603 39,000  Level Houston Center
Mon 02:18:06 PM 29.7431 -90.7092 53° Northeast 526 605 39,000  Level Houston Center
Mon 02:19:08 PM 29.8289 -90.5764 53° Northeast 526 605 39,000  Level Houston Center
Mon 02:20:10 PM 29.9153 -90.4411 54° Northeast 526 605 39,000  Level Houston Center
Mon 02:21:12 PM 30.0192 -90.2786 54° Northeast 526 605 39,000  Level Houston Center
Mon 02:22:14 PM 30.1086 -90.1397 53° Northeast 526 605 39,000  Level Houston Center
Mon 02:23:16 PM 30.1922 -90.0069 54° Northeast 524 603 39,000  Level Houston Center
Mon 02:24:19 PM 30.2728 -89.8767 54° Northeast 524 603 39,000  Level Houston Center
Mon 02:25:21 PM 30.3669 -89.7281 54° Northeast 528 608 39,000  Level Houston Center
Mon 02:26:23 PM 30.4622 -89.5789 53° Northeast 529 609 39,000  Level Houston Center
Mon 02:27:25 PM 30.5481 -89.4408 54° Northeast 529 609 39,000  Level Houston Center
Mon 02:28:27 PM 30.6350 -89.3017 54° Northeast 530 610 39,000  Level Houston Center
Mon 02:29:29 PM 30.7367 -89.1336 55° Northeast 532 612 39,000  Level Houston Center
Mon 02:30:31 PM 30.8244 -88.9947 54° Northeast 532 612 39,000  Level Houston Center
Mon 02:31:34 PM 30.9031 -88.8653 55° Northeast 532 612 39,000  Level Houston Center
Mon 02:32:36 PM 30.9883 -88.7253 55° Northeast 532 612 39,000  Level Houston Center
Mon 02:33:38 PM 31.0814 -88.5761 54° Northeast 532 612 39,000  Level Houston Center
Mon 02:34:40 PM 31.1667 -88.4353 55° Northeast 531 611 39,000  Level Houston Center
Mon 02:35:42 PM 31.2669 -88.2703 55° Northeast 531 611 39,000  Level Houston Center
Mon 02:36:44 PM 31.3597 -88.1150 55° Northeast 531 611 39,000  Level Houston Center
Mon 02:37:47 PM 31.4372 -87.9867 55° Northeast 531 611 39,000  Level Houston Center
Mon 02:38:49 PM 31.5308 -87.8564 50° Northeast 529 609 39,000  Level Houston Center
Mon 02:39:51 PM 31.6408 -87.7519 39° Northeast 513 590 39,000 -457 Level Houston Center
Mon 02:40:34 PM 31.7328 -87.6769 35° Northeast 504 580 38,200 -1,515 Descending Atlanta Center
Mon 02:41:34 PM 31.8442 -87.5739 38° Northeast 504 580 36,400 -1,800 Descending Atlanta Center
Mon 02:42:34 PM 31.9397 -87.4431 49° Northeast 509 586 34,600 -1,750 Descending Atlanta Center
Mon 02:43:34 PM 32.0106 -87.2914 61° Northeast 523 602 32,900 -1,750 Descending Atlanta Center
Mon 02:44:34 PM 32.0917 -87.1450 57° Northeast 523 602 31,100 -1,850 Descending Atlanta Center
Mon 02:45:34 PM 32.1786 -87.0031 54° Northeast 523 602 29,200 -1,850 Descending Atlanta Center
Mon 02:46:34 PM 32.2631 -86.8658 54° Northeast 523 602 27,400 -1,850 Descending Atlanta Center
Mon 02:47:34 PM 32.3456 -86.7261 55° Northeast 523 602 25,500 -1,700 Descending Atlanta Center
Mon 02:48:34 PM 32.4428 -86.5789 52° Northeast 523 602 24,000 -750 Descending Atlanta Center
Mon 02:49:34 PM 32.5142 -86.4453 58° Northeast 518 596 24,000  Level Atlanta Center
Mon 02:50:34 PM 32.6003 -86.3047 54° Northeast 525 604 24,000  Level Atlanta Center
Mon 02:51:34 PM 32.6844 -86.1589 56° Northeast 532 612 24,000 -750 Level Atlanta Center
Mon 02:52:34 PM 32.7681 -86.0150 55° Northeast 532 612 22,500 -1,750 Descending Atlanta Center
Mon 02:53:34 PM 32.8583 -85.8614 55° Northeast 526 605 20,500 -1,800 Descending Atlanta Center
Mon 02:54:34 PM 32.9372 -85.7269 55° Northeast 514 592 18,900 -1,750 Descending Atlanta Center
Mon 02:55:34 PM 33.0100 -85.5994 56° Northeast 486 559 17,000 -1,900 Descending Atlanta Center
Mon 02:57:34 PM 33.1483 -85.3761 53° Northeast 412 474 13,200 -1,525 Descending Atlanta Center
Mon 02:59:34 PM 33.2714 -85.1594 56° Northeast 390 449 10,900 -767 Descending Atlanta Center
Mon 03:00:34 PM 33.3511 -85.1231 21° North 310 357 10,900 -300 Level Atlanta Center
Mon 03:01:34 PM 33.4286 -85.0992 14° North 291 335 10,300 -950 Descending Atlanta Center
Mon 03:02:34 PM 33.5042 -85.0528 27° Northeast 291 335 9,000 -1,734 Descending Atlanta Center
Mon 03:04:27 PM 33.6167 -84.9167 45° Northeast 312 359 5,300 -1,803 Descending Atlanta TRACON
Mon 03:05:27 PM 33.6667 -84.8500 48° Northeast 263 303 3,800 -1,200 Descending Atlanta TRACON
Mon 03:06:27 PM 33.7167 -84.8000 40° Northeast 218 251 2,900 -400 Descending Atlanta TRACON
Mon 03:07:27 PM 33.7500 -84.7333 59° Northeast 209 241 3,000  Climbing Atlanta TRACON
Mon 03:08:21 PM 33.7500 -84.6833 90° East 189 217 2,900 -316 Descending Atlanta TRACON
Mon 03:09:21 PM 33.7667 -84.6333 68° East 208 239 2,400 -650 Descending Atlanta TRACON
Mon 03:10:21 PM 33.7667 -84.5667 90° East 168 193 1,600 -450 Descending Atlanta TRACON
Mon 03:11:21 PM 33.8000 -84.5167 51° Northeast 166 191 1,500  Descending Atlanta TRACON
Mon 03:12:21 PM 33.8000 -84.4833 90° East 185 213 1,600 100 Climbing Atlanta TRACON
Mon 03:14:00 PM 33.7667 -84.5167 90° East  Level FlightAware Approximate

Login

Don't have an account? Register now (free) for customized features, flight alerts, and more!